Airfield :
LOGIN :

Register | Disclaimer

   EN    FR    IT 

 










Legend :    VFR   Marginal VFR   IFR   Intensive IFR   Very Intensive IFR
Visi :
Ceiling :
>= 8 km
>= 3000ft
5 to 8 km
1000 to 3000 ft
1500m to 5 km
500 to 1000 ft
800 to 1500m
200 to 500 ft
< 800m
< 200 ft
Symbols :   Thunderstorms  Fog  Heavy snow  Heavy precipitations  Wind > 20 kt
SIGMETs :     Misc.  Thunderstorms  Icing  Turbulence  Mountain Waves  Volcanic Ashes







- Airport Elevation : 1791 ft
- IATA code : AOT


LIMW - Aosta

CURRENT METAR :
  • 211320Z AUTO 09010KT 9999 SCT100/// 28/15 Q1019

EXPIRED METARs :
  • 211250Z AUTO 09009KT 050V120 9999 NCD 28/17 Q1019
  • 211220Z AUTO 09008KT 9999 FEW100/// 27/16 Q1020
  • 211150Z AUTO 11004KT 030V200 9999 FEW100/// 27/13 Q1020
  • 211120Z AUTO VRB02KT 9999 NCD 26/12 Q1021
  • 211050Z AUTO VRB02KT 9999 NCD 25/12 Q1021
  • 211020Z AUTO 13003KT 050V200 9999 NCD 24/13 Q1022

TAF TAF LIMW
Valid from the 21 at 12:00 until the 21 at 21:00 UTC


211100Z 2112/2121 VRB05KT 9999 SCT090
TEMPO 2115/2118 SHRA
No reported NOTAMs for that airfield.



MET'MAP, your aeronautical weather chart ! - Copyright ORBIFLY December 2007 - Disclaimer

ORBIFLY MET'MAP TEAM :

Programming & Development : Alexandra Zaïnal
Concept & Development : Baudouin d'Aumeries
Co-Development & Prog : Marc-Olivier Méhu
Technical & hardware support : Manuel Goepfert

Contact : metmap@orbifly.com




SOURCES & CREDITS :

   NOAA